KCID/CID METAR and TAF weather

Enter ICAO airport designator
Station Type Date Time Source
KCID METAR 2020/01/22 21:08 UTC NOAA

KCID 222108Z 15012KT 2SM -SN BR SCT020 BKN035 OVC044 M02/M03 A2999 RMK AO2 SNB04 P0000 T10171033


Station Type Date Time Source
KCID Decoded METAR 2020/01/22 21:08 UTC NOAA

CEDAR RAPIDS AIRPORT, IA, United States (KCID) 41-53N 91-43W
Jan 22, 2020 - 04:08 PM EST / 2020.01.22 2108 UTC
Wind: from the SSE (150 degrees) at 14 MPH (12 KT):0
Visibility: 2 mile(s):0
Sky conditions: overcast
Weather: light snow; mist
Precipitation last hour: A trace
Temperature: 28.9 F (-1.7 C)
Windchill: 17 F (-8 C):1
Dew Point: 26.1 F (-3.3 C)
Relative Humidity: 88%
Pressure (altimeter): 29.99 in. Hg (1015 hPa)
ob: KCID 222108Z 15012KT 2SM -SN BR SCT020 BKN035 OVC044 M02/M03 A2999 RMK AO2 SNB04 P0000 T10171033
cycle: 21

Station Type Date Time Source
KCID TAF 2020/01/22 21:09 UTC NOAA

TAF
AMD KCID 222106Z 2221/2318 16012KT 3SM -SN FEW029 OVC040
TEMPO 2221/2223 1 1/2SM -SN OVC015
FM230000 15012KT 3SM -SN OVC009
FM231400 14007KT 1/2SM FG OVC007

Example: see airport list